Time;durP1;ratioP1;P1;durP2;ratioP2;P2;SDS_P1;SDS_P2;PMS_P1;PMS_P2;Temp;Humidity;BMP_temperature;BMP_pressure;BME280_temperature;BME280_humidity;BME280_pressure;Samples;Min_cycle;Max_cycle;Signal;HPM_P1;HPM_P2
2022/11/11 00:00:37;;;;;;;10.60;3.08;;;12.70;99.90;;;;;;4796118;29;20062;-81
2022/11/11 00:03:03;;;;;;;11.00;3.45;;;12.70;99.90;;;;;;4799212;29;20071;-81
2022/11/11 00:05:33;;;;;;;8.27;3.60;;;12.60;99.90;;;;;;4796731;29;20082;-82
2022/11/11 00:07:59;;;;;;;11.30;3.10;;;12.60;99.90;;;;;;4793084;29;20057;-82
2022/11/11 00:10:31;;;;;;;12.13;3.35;;;12.60;99.90;;;;;;4813316;29;20050;-82
2022/11/11 00:13:01;;;;;;;11.35;3.53;;;12.60;99.90;;;;;;4781808;29;20983;-82
2022/11/11 00:15:27;;;;;;;10.80;3.72;;;12.60;99.90;;;;;;4812236;29;21006;-81
2022/11/11 00:26:11;;;;;;;11.60;4.88;;;12.70;99.90;;;;;;4809813;29;20153;-82
2022/11/11 00:28:37;;;;;;;11.52;3.20;;;12.70;99.90;;;;;;4812213;29;20074;-81
2022/11/11 00:31:08;;;;;;;17.17;4.07;;;12.70;99.90;;;;;;4798443;29;20061;-81
2022/11/11 00:33:34;;;;;;;12.43;3.88;;;12.80;99.90;;;;;;4812199;29;20054;-82
2022/11/11 00:36:00;;;;;;;10.75;3.63;;;12.80;99.90;;;;;;4782287;29;20077;-81
2022/11/11 00:38:45;;;;;;;10.70;3.42;;;12.80;99.90;;;;;;4781183;29;20141;-82
2022/11/11 00:41:13;;;;;;;13.15;3.25;;;12.80;99.90;;;;;;4807512;29;20077;-82
2022/11/11 00:43:39;;;;;;;10.63;3.13;;;12.80;99.90;;;;;;4808684;29;20054;-82
2022/11/11 00:51:35;;;;;;;12.68;4.03;;;12.80;99.90;;;;;;4811824;29;20050;-81
2022/11/11 00:54:01;;;;;;;11.35;3.97;;;12.80;99.90;;;;;;4810895;29;20050;-82
2022/11/11 00:56:26;;;;;;;10.80;3.75;;;12.80;99.90;;;;;;4809190;29;20058;-82
2022/11/11 00:58:52;;;;;;;15.70;4.10;;;12.70;99.90;;;;;;4798130;29;20397;-82
2022/11/11 01:01:19;;;;;;;12.55;3.35;;;12.70;99.90;;;;;;4798006;29;20099;-82
2022/11/11 01:03:44;;;;;;;12.98;4.00;;;12.70;99.90;;;;;;4792926;29;20061;-81
2022/11/11 01:06:11;;;;;;;12.80;4.15;;;12.70;99.90;;;;;;4783073;29;20042;-82
2022/11/11 01:08:37;;;;;;;12.02;3.95;;;12.70;99.90;;;;;;4812126;29;20062;-82
2022/11/11 01:11:03;;;;;;;15.18;3.90;;;12.70;99.90;;;;;;4788409;29;20062;-82
2022/11/11 01:13:31;;;;;;;12.13;4.10;;;12.70;99.90;;;;;;4795660;29;20058;-82
2022/11/11 01:16:03;;;;;;;13.85;3.70;;;12.70;99.90;;;;;;4807290;29;20141;-82
2022/11/11 01:18:29;;;;;;;16.27;4.60;;;12.70;99.90;;;;;;4809692;29;20062;-82
2022/11/11 01:21:05;;;;;;;12.52;3.70;;;12.70;99.90;;;;;;4797778;29;20059;-82
2022/11/11 01:23:33;;;;;;;15.55;3.88;;;12.70;99.90;;;;;;4812900;29;20055;-82
2022/11/11 01:26:04;;;;;;;16.50;4.03;;;12.60;99.90;;;;;;4812446;29;20173;-81
2022/11/11 01:28:30;;;;;;;9.38;3.00;;;12.70;99.90;;;;;;4814336;29;20481;-82
2022/11/11 01:31:04;;;;;;;14.13;4.07;;;12.70;99.90;;;;;;4814360;29;20070;-83
2022/11/11 01:33:30;;;;;;;13.35;3.85;;;12.70;99.90;;;;;;4800756;29;20050;-82
2022/11/11 01:36:01;;;;;;;12.73;3.70;;;12.70;99.90;;;;;;4810636;29;20560;-83
2022/11/11 01:38:26;;;;;;;15.40;4.15;;;12.70;99.90;;;;;;4800798;29;20062;-83
2022/11/11 01:40:52;;;;;;;14.60;4.00;;;12.70;99.90;;;;;;4799604;29;20050;-82
2022/11/11 01:43:21;;;;;;;11.48;3.97;;;13.10;99.90;;;;;;4799601;29;20122;-82
2022/11/11 01:45:49;;;;;;;13.85;4.38;;;12.80;99.90;;;;;;4813592;29;20383;-82
2022/11/11 01:51:18;;;;;;;12.55;3.92;;;12.80;99.90;;;;;;4813271;29;20674;-82
2022/11/11 01:53:46;;;;;;;6.70;3.50;;;12.80;99.90;;;;;;4798954;29;20115;-82
2022/11/11 01:56:12;;;;;;;13.05;3.88;;;12.80;99.90;;;;;;4783762;29;20542;-82
2022/11/11 01:58:38;;;;;;;10.75;3.92;;;12.80;99.90;;;;;;4800832;29;20481;-82
2022/11/11 02:01:04;;;;;;;11.80;3.95;;;12.80;99.90;;;;;;4785493;29;20064;-82
2022/11/11 02:03:34;;;;;;;16.75;3.63;;;12.80;99.90;;;;;;4797586;29;20167;-82
2022/11/11 02:06:00;;;;;;;15.50;4.20;;;12.80;99.90;;;;;;4813156;29;20183;-83
2022/11/11 02:08:33;;;;;;;14.63;4.40;;;12.80;99.90;;;;;;4800296;29;20050;-82
2022/11/11 02:14:34;;;;;;;14.95;4.47;;;12.80;99.90;;;;;;4799633;29;20129;-83
2022/11/11 02:16:50;;;;;;;10.85;3.85;;;12.80;99.90;;;;;;4802272;29;20058;-82
2022/11/11 02:19:22;;;;;;;13.73;3.97;;;12.80;99.90;;;;;;4796356;29;20050;-82
2022/11/11 02:21:57;;;;;;;11.57;3.65;;;12.80;99.90;;;;;;4815486;29;20588;-81
2022/11/11 02:24:24;;;;;;;14.45;4.10;;;12.70;99.90;;;;;;4797677;29;20054;-81
2022/11/11 02:26:53;;;;;;;13.32;3.75;;;12.70;99.90;;;;;;4813643;29;20054;-81
2022/11/11 02:29:21;;;;;;;15.88;3.90;;;12.70;99.90;;;;;;4813688;29;20515;-81
2022/11/11 02:31:46;;;;;;;17.00;4.35;;;12.70;99.90;;;;;;4812702;29;20082;-81
2022/11/11 02:34:12;;;;;;;16.17;4.43;;;12.70;99.90;;;;;;4796721;29;20195;-82
2022/11/11 02:36:40;;;;;;;15.30;4.35;;;12.70;99.90;;;;;;4799545;29;20085;-81
2022/11/11 02:39:06;;;;;;;17.23;4.72;;;12.70;99.90;;;;;;4794120;29;20545;-82
2022/11/11 02:44:16;;;;;;;14.98;4.70;;;12.70;99.90;;;;;;4812760;29;20058;-81
2022/11/11 02:46:42;;;;;;;12.35;4.30;;;12.70;99.90;;;;;;4798882;29;20413;-82
2022/11/11 02:49:08;;;;;;;15.23;4.05;;;12.70;99.90;;;;;;4797518;29;20046;-81
2022/11/11 02:51:33;;;;;;;17.15;5.05;;;12.70;99.90;;;;;;4795649;29;20058;-82
2022/11/11 02:54:01;;;;;;;16.10;5.10;;;12.70;99.90;;;;;;4798486;29;20058;-81
2022/11/11 02:59:12;;;;;;;9.05;4.60;;;12.70;99.90;;;;;;4800556;29;20050;-82
2022/11/11 03:01:38;;;;;;;15.18;5.05;;;12.70;99.90;;;;;;4798078;29;20110;-82
2022/11/11 03:04:04;;;;;;;16.80;6.22;;;12.70;99.90;;;;;;4814377;29;20057;-82
2022/11/11 03:06:30;;;;;;;12.90;4.60;;;12.70;99.90;;;;;;4829258;29;20078;-82
2022/11/11 03:08:56;;;;;;;12.98;4.50;;;12.70;99.90;;;;;;4797029;29;20141;-81
2022/11/11 03:11:28;;;;;;;11.93;4.55;;;12.70;99.90;;;;;;4813475;29;20134;-81
2022/11/11 03:13:55;;;;;;;13.88;5.13;;;12.70;99.90;;;;;;4811252;29;20106;-82
2022/11/11 03:19:06;;;;;;;10.38;4.20;;;12.70;99.90;;;;;;4827977;29;20054;-82
2022/11/11 03:21:32;;;;;;;13.40;5.28;;;12.70;99.90;;;;;;4796776;29;20515;-81
2022/11/11 03:23:57;;;;;;;14.73;5.10;;;12.70;99.90;;;;;;4791981;29;20073;-82
2022/11/11 03:26:23;;;;;;;14.77;5.18;;;12.70;99.90;;;;;;4809176;29;20069;-81
2022/11/11 03:28:49;;;;;;;13.52;5.15;;;12.70;99.90;;;;;;4810752;29;20055;-82
2022/11/11 03:31:15;;;;;;;18.80;5.43;;;12.70;99.90;;;;;;4798621;29;20050;-82
2022/11/11 03:33:41;;;;;;;17.13;5.63;;;12.60;99.90;;;;;;4797312;29;20046;-81
2022/11/11 03:36:07;;;;;;;15.63;4.82;;;12.60;99.90;;;;;;4812552;29;20061;-82
2022/11/11 03:38:32;;;;;;;15.20;4.95;;;12.60;99.90;;;;;;4809093;29;20115;-82
2022/11/11 03:40:58;;;;;;;19.33;5.45;;;12.60;99.90;;;;;;4796167;29;20316;-81
2022/11/11 03:43:27;;;;;;;14.02;5.07;;;12.70;99.90;;;;;;4812203;29;20778;-81
2022/11/11 03:45:54;;;;;;;15.40;5.20;;;12.60;99.90;;;;;;4793539;29;20050;-81
2022/11/11 03:48:21;;;;;;;12.73;5.90;;;12.60;99.90;;;;;;4810392;29;20065;-82
2022/11/11 03:50:47;;;;;;;18.98;5.68;;;12.60;99.90;;;;;;4794751;29;20406;-81
2022/11/11 03:53:13;;;;;;;17.25;5.07;;;12.60;99.90;;;;;;4798243;29;20054;-82
2022/11/11 03:55:40;;;;;;;13.30;5.13;;;12.60;99.90;;;;;;4783459;29;20046;-81
2022/11/11 03:58:06;;;;;;;18.38;6.00;;;12.60;99.90;;;;;;4797818;29;20058;-81
2022/11/11 04:00:33;;;;;;;10.07;5.18;;;12.60;99.90;;;;;;4796589;29;20062;-81
2022/11/11 04:11:29;;;;;;;15.13;6.45;;;12.60;99.90;;;;;;4809662;29;20054;-81
2022/11/11 04:16:44;;;;;;;14.38;6.38;;;12.60;99.90;;;;;;4812900;29;20058;-81
2022/11/11 04:22:02;;;;;;;12.82;6.47;;;12.50;99.90;;;;;;4780945;29;20058;-80
2022/11/11 04:27:14;;;;;;;14.65;7.22;;;12.50;99.90;;;;;;4797904;29;20058;-81
2022/11/11 04:29:42;;;;;;;12.45;6.90;;;12.40;99.90;;;;;;4812064;29;20053;-81
2022/11/11 04:34:56;;;;;;;18.50;9.15;;;12.20;99.90;;;;;;4809274;29;20046;-82
2022/11/11 04:37:23;;;;;;;17.30;8.85;;;12.40;99.90;;;;;;4793635;29;20054;-81
2022/11/11 04:42:34;;;;;;;15.30;9.27;;;12.30;99.90;;;;;;4810236;29;20218;-81
2022/11/11 04:48:03;;;;;;;18.58;9.27;;;12.20;99.90;;;;;;4812661;29;20142;-81
2022/11/11 04:50:39;;;;;;;21.10;9.73;;;12.20;99.90;;;;;;4812571;29;20163;-82
2022/11/11 04:53:09;;;;;;;14.73;9.75;;;12.10;99.90;;;;;;4797349;29;20062;-81
2022/11/11 04:58:23;;;;;;;14.30;10.13;;;12.10;99.90;;;;;;4815042;29;20058;-82
2022/11/11 05:00:48;;;;;;;18.33;10.88;;;12.10;99.90;;;;;;4800569;29;20054;-81
2022/11/11 05:03:15;;;;;;;19.58;10.13;;;12.10;99.90;;;;;;4800405;29;20065;-81
2022/11/11 05:11:17;;;;;;;18.15;11.15;;;12.00;99.90;;;;;;4815988;29;20058;-81
2022/11/11 05:22:10;;;;;;;18.45;12.43;;;11.90;99.90;;;;;;4830596;29;20058;-81
2022/11/11 05:27:20;;;;;;;19.92;12.18;;;11.80;99.90;;;;;;4803062;29;20122;-81
2022/11/11 05:29:46;;;;;;;19.67;12.05;;;11.90;99.90;;;;;;4784952;29;20508;-81
2022/11/11 05:32:17;;;;;;;22.08;12.93;;;11.80;99.90;;;;;;4787812;29;20086;-81
2022/11/11 05:34:43;;;;;;;23.50;13.05;;;11.80;99.90;;;;;;4814840;29;20126;-81
2022/11/11 05:37:09;;;;;;;20.55;14.18;;;11.50;99.90;;;;;;4800242;29;20450;-81
2022/11/11 05:39:35;;;;;;;22.70;13.63;;;11.80;99.90;;;;;;4799750;29;20054;-81
2022/11/11 05:42:00;;;;;;;22.85;14.00;;;11.80;99.90;;;;;;4796043;29;20483;-81
2022/11/11 05:44:26;;;;;;;21.55;13.00;;;11.80;99.90;;;;;;4800628;29;20492;-81
2022/11/11 05:46:52;;;;;;;18.98;11.68;;;11.80;99.90;;;;;;4803919;29;20894;-81
2022/11/11 05:49:20;;;;;;;17.30;12.52;;;11.90;99.90;;;;;;4798493;29;20054;-82
2022/11/11 05:51:46;;;;;;;23.35;13.35;;;11.80;99.90;;;;;;4807348;29;20051;-81
2022/11/11 05:54:13;;;;;;;18.75;12.75;;;11.80;99.90;;;;;;4812340;29;20061;-82
2022/11/11 05:56:39;;;;;;;21.63;13.07;;;11.80;99.90;;;;;;4797259;29;20140;-81
2022/11/11 05:59:06;;;;;;;19.92;12.27;;;11.80;99.90;;;;;;4812961;29;20050;-82
2022/11/11 06:01:32;;;;;;;21.98;12.93;;;11.80;99.90;;;;;;4794688;29;20118;-81
2022/11/11 06:03:58;;;;;;;20.67;13.27;;;11.80;99.90;;;;;;4814496;29;20572;-80
2022/11/11 06:06:23;;;;;;;22.23;12.82;;;11.80;99.90;;;;;;4795573;29;20052;-81
2022/11/11 06:08:49;;;;;;;22.40;13.50;;;11.80;99.90;;;;;;4803431;29;20122;-81
2022/11/11 06:11:15;;;;;;;18.55;12.95;;;11.80;99.90;;;;;;4804536;29;20427;-81
2022/11/11 06:13:40;;;;;;;27.75;13.95;;;11.80;99.90;;;;;;4804494;29;20082;-81
2022/11/11 06:16:07;;;;;;;25.60;13.65;;;11.80;99.90;;;;;;4781467;29;20500;-81
2022/11/11 06:18:33;;;;;;;22.77;13.35;;;11.80;99.90;;;;;;4782133;29;20058;-82
2022/11/11 06:20:59;;;;;;;22.60;13.88;;;11.80;99.90;;;;;;4798721;29;20062;-80
2022/11/11 06:23:26;;;;;;;19.45;12.70;;;11.80;99.90;;;;;;4800881;29;20097;-84
2022/11/11 06:26:13;;;;;;;18.52;12.95;;;11.80;99.90;;;;;;4767689;29;20103;-80
2022/11/11 06:28:53;;;;;;;21.70;13.75;;;11.80;99.90;;;;;;4795022;29;20046;-80
2022/11/11 06:31:24;;;;;;;24.98;13.65;;;11.80;99.90;;;;;;4796759;29;20073;-82
2022/11/11 06:33:50;;;;;;;17.60;12.75;;;11.80;99.90;;;;;;4797858;29;20090;-82
2022/11/11 06:36:18;;;;;;;22.38;13.35;;;11.80;99.90;;;;;;4797072;29;20054;-81
2022/11/11 06:38:44;;;;;;;23.13;13.00;;;11.80;99.90;;;;;;4812972;29;20065;-81
2022/11/11 06:41:11;;;;;;;22.90;13.95;;;11.80;99.90;;;;;;4810562;29;20137;-81
2022/11/11 06:43:41;;;;;;;18.90;13.20;;;11.80;99.90;;;;;;4798951;29;20061;-81
2022/11/11 06:46:15;;;;;;;22.67;13.40;;;11.80;99.90;;;;;;4798296;29;20062;-81
2022/11/11 06:48:42;;;;;;;19.17;13.88;;;11.80;99.90;;;;;;4796078;29;20667;-81
2022/11/11 06:51:10;;;;;;;21.90;14.65;;;11.70;99.90;;;;;;4795314;29;20047;-82
2022/11/11 06:53:36;;;;;;;22.10;14.45;;;11.70;99.90;;;;;;4825529;29;20049;-80
2022/11/11 06:56:01;;;;;;;23.08;15.27;;;11.70;99.90;;;;;;4797464;29;20054;-81
2022/11/11 06:58:27;;;;;;;23.95;15.27;;;11.70;99.90;;;;;;4817414;29;20071;-81
2022/11/11 07:00:53;;;;;;;23.63;15.65;;;11.70;99.90;;;;;;4810104;29;20053;-81
2022/11/11 07:03:20;;;;;;;24.60;15.40;;;11.70;99.90;;;;;;4799444;29;20057;-81
2022/11/11 07:05:47;;;;;;;24.75;16.52;;;11.70;99.90;;;;;;4812003;29;20065;-82
2022/11/11 07:08:16;;;;;;;24.77;15.88;;;11.70;99.90;;;;;;4791672;29;20133;-82
2022/11/11 07:10:47;;;;;;;21.92;15.30;;;11.70;99.90;;;;;;4811955;29;20088;-84
2022/11/11 07:13:14;;;;;;;23.10;16.35;;;11.70;99.90;;;;;;4810130;29;20069;-82
2022/11/11 07:15:42;;;;;;;24.38;16.50;;;11.70;99.90;;;;;;4782772;29;20050;-82
2022/11/11 07:18:08;;;;;;;25.90;17.63;;;11.60;99.90;;;;;;4783239;29;20404;-82
2022/11/11 07:20:36;;;;;;;24.23;16.20;;;11.60;99.90;;;;;;4816169;29;20092;-82
2022/11/11 07:23:02;;;;;;;21.80;15.85;;;11.60;99.90;;;;;;4814949;29;20549;-81
2022/11/11 07:25:28;;;;;;;25.00;16.77;;;11.60;99.90;;;;;;4800127;29;20457;-81
2022/11/11 07:27:53;;;;;;;22.23;15.80;;;11.60;99.90;;;;;;4800065;29;20050;-81
2022/11/11 07:30:19;;;;;;;21.80;16.27;;;11.60;99.90;;;;;;4785443;29;20058;-80
2022/11/11 07:32:46;;;;;;;23.70;15.93;;;11.60;99.90;;;;;;4798459;29;20046;-80
2022/11/11 07:35:13;;;;;;;23.98;16.27;;;11.60;99.90;;;;;;4817966;29;20050;-81
2022/11/11 07:37:39;;;;;;;26.83;16.88;;;11.60;99.90;;;;;;4815312;29;20057;-81
2022/11/11 07:40:06;;;;;;;25.13;16.42;;;11.60;99.90;;;;;;4801586;29;20064;-82
2022/11/11 07:42:34;;;;;;;24.48;16.30;;;11.60;99.90;;;;;;4814239;29;20054;-82
2022/11/11 07:45:00;;;;;;;24.38;16.13;;;11.70;99.90;;;;;;4797311;29;20068;-82
2022/11/11 07:47:26;;;;;;;24.30;15.98;;;11.70;99.90;;;;;;4800375;29;20046;-83
2022/11/11 07:49:51;;;;;;;24.50;16.67;;;11.70;99.90;;;;;;4800513;29;20092;-80
2022/11/11 07:52:17;;;;;;;25.15;16.60;;;11.60;99.90;;;;;;4772974;29;20068;-82
2022/11/11 07:54:43;;;;;;;26.27;16.17;;;11.60;99.90;;;;;;4785893;29;20401;-81
2022/11/11 07:57:08;;;;;;;27.52;16.63;;;11.60;99.90;;;;;;4784427;29;20056;-81
2022/11/11 07:59:34;;;;;;;23.60;15.05;;;11.70;99.90;;;;;;4785851;29;20128;-81
2022/11/11 08:02:00;;;;;;;26.80;16.27;;;11.70;99.90;;;;;;4801363;29;20103;-81
2022/11/11 08:04:26;;;;;;;25.17;16.65;;;11.70;99.90;;;;;;4794331;29;20457;-87
2022/11/11 08:06:51;;;;;;;24.77;16.15;;;11.70;99.90;;;;;;4803285;29;20078;-83
2022/11/11 08:09:17;;;;;;;23.52;15.10;;;11.70;99.90;;;;;;4786346;29;20089;-83
2022/11/11 08:14:43;;;;;;;29.17;17.48;;;11.70;99.90;;;;;;4743836;30;20404;-82
2022/11/11 08:17:09;;;;;;;28.60;16.08;;;11.70;99.90;;;;;;4788429;29;20072;-83
2022/11/11 08:19:35;;;;;;;28.60;17.27;;;11.70;99.90;;;;;;4800816;29;20103;-82
2022/11/11 08:22:00;;;;;;;26.35;16.02;;;11.80;99.90;;;;;;4778196;29;20540;-83
2022/11/11 08:24:26;;;;;;;23.73;16.58;;;11.80;99.90;;;;;;4800102;29;20069;-83
2022/11/11 08:26:53;;;;;;;26.95;16.52;;;11.80;99.90;;;;;;4797098;29;20069;-83
2022/11/11 08:29:19;;;;;;;24.90;17.10;;;11.80;99.90;;;;;;4810742;29;20128;-82
2022/11/11 08:31:45;;;;;;;24.98;17.23;;;11.80;99.90;;;;;;4812959;29;20050;-82
2022/11/11 08:34:11;;;;;;;22.40;15.73;;;11.80;99.90;;;;;;4790195;29;20102;-83
2022/11/11 08:36:37;;;;;;;24.25;15.98;;;11.80;99.90;;;;;;4810002;29;20058;-82
2022/11/11 08:39:03;;;;;;;23.30;16.90;;;11.70;99.90;;;;;;4814246;29;20129;-82
2022/11/11 08:41:29;;;;;;;25.65;16.33;;;11.70;99.90;;;;;;4797702;29;20073;-83
2022/11/11 08:43:55;;;;;;;25.98;16.23;;;11.70;99.90;;;;;;4785509;29;20055;-82
2022/11/11 08:46:22;;;;;;;25.38;16.35;;;11.70;99.90;;;;;;4814810;29;20689;-83
2022/11/11 08:48:48;;;;;;;28.88;17.30;;;11.70;99.90;;;;;;4816363;29;20062;-83
2022/11/11 08:51:14;;;;;;;24.05;16.35;;;11.80;99.90;;;;;;4787165;29;20409;-83
2022/11/11 08:53:40;;;;;;;31.48;16.85;;;11.80;99.90;;;;;;4800455;29;20815;-84
2022/11/11 08:56:06;;;;;;;27.10;16.60;;;11.80;99.90;;;;;;4786119;29;20089;-83
2022/11/11 08:58:32;;;;;;;28.63;17.48;;;11.80;99.90;;;;;;4786393;29;20562;-84
2022/11/11 09:01:02;;;;;;;26.30;17.42;;;11.80;99.90;;;;;;4799071;29;20062;-86
2022/11/11 09:03:29;;;;;;;26.52;17.35;;;12.80;99.90;;;;;;4802998;29;20575;-83
2022/11/11 09:05:55;;;;;;;24.95;16.98;;;11.80;99.90;;;;;;4816431;29;20092;-84
2022/11/11 09:08:21;;;;;;;23.15;16.70;;;11.90;99.90;;;;;;4801963;29;20110;-84
2022/11/11 09:10:46;;;;;;;24.38;16.55;;;11.90;99.90;;;;;;4786200;29;20054;-83
2022/11/11 09:13:14;;;;;;;24.48;17.27;;;11.90;99.90;;;;;;4802197;29;20054;-83
2022/11/11 09:15:40;;;;;;;25.80;17.48;;;11.90;99.90;;;;;;4816938;29;20050;-83
2022/11/11 09:18:07;;;;;;;27.70;17.33;;;11.90;99.90;;;;;;4801860;29;20046;-83
2022/11/11 09:20:33;;;;;;;24.88;16.83;;;11.90;99.90;;;;;;4789419;29;20133;-85
2022/11/11 09:22:59;;;;;;;25.95;17.52;;;11.80;99.90;;;;;;4802912;29;20140;-83
2022/11/11 09:25:25;;;;;;;27.58;16.60;;;11.90;99.90;;;;;;4805466;29;20586;-84
2022/11/11 09:27:58;;;;;;;23.98;16.70;;;11.90;99.90;;;;;;4819891;29;20444;-83
2022/11/11 09:30:26;;;;;;;26.25;17.23;;;11.90;99.90;;;;;;4800262;29;20798;-84
2022/11/11 09:32:52;;;;;;;25.35;17.23;;;11.90;99.90;;;;;;4813920;29;20058;-83
2022/11/11 09:35:17;;;;;;;25.55;18.75;;;11.90;99.90;;;;;;4809841;29;20054;-83
2022/11/11 09:37:54;;;;;;;27.45;18.15;;;12.00;99.90;;;;;;4774088;29;20061;-83
2022/11/11 09:40:23;;;;;;;27.58;18.23;;;12.00;99.90;;;;;;4803617;29;20046;-82
2022/11/11 09:43:12;;;;;;;26.50;18.33;;;12.00;99.90;;;;;;4799926;29;20118;-83
2022/11/11 09:45:59;;;;;;;25.73;17.80;;;12.00;99.90;;;;;;4807424;29;20062;-84
2022/11/11 09:48:34;;;;;;;28.65;17.90;;;12.50;99.90;;;;;;4819306;29;20053;-83
2022/11/11 09:51:02;;;;;;;27.15;18.17;;;12.00;99.90;;;;;;4817375;29;20058;-84
2022/11/11 09:53:34;;;;;;;24.63;18.63;;;12.00;99.90;;;;;;4815494;29;20160;-83
2022/11/11 09:56:20;;;;;;;25.77;17.33;;;12.00;99.90;;;;;;4799383;29;20528;-84
2022/11/11 09:59:02;;;;;;;30.17;20.50;;;12.00;99.90;;;;;;4817994;29;20544;-83
2022/11/11 10:01:43;;;;;;;25.40;17.60;;;12.40;99.90;;;;;;4817972;29;20049;-86
2022/11/11 10:04:37;;;;;;;33.15;20.00;;;12.10;99.90;;;;;;4801658;29;20065;-86
2022/11/11 10:07:12;;;;;;;29.65;19.33;;;12.10;99.90;;;;;;4786203;29;20073;-83
2022/11/11 10:09:45;;;;;;;28.05;17.75;;;12.10;99.90;;;;;;4815277;29;20488;-84
2022/11/11 10:12:15;;;;;;;29.15;18.92;;;11.20;99.90;;;;;;4818345;29;20057;-83
2022/11/11 10:14:45;;;;;;;24.38;17.52;;;12.20;99.90;;;;;;4800060;29;20061;-84
2022/11/11 10:17:32;;;;;;;25.83;18.77;;;12.10;99.90;;;;;;4818149;29;20088;-84
2022/11/11 10:20:25;;;;;;;25.83;18.88;;;12.20;99.90;;;;;;4815687;29;20106;-83
2022/11/11 10:23:04;;;;;;;25.85;18.48;;;12.20;99.90;;;;;;4802279;29;20070;-83
2022/11/11 10:25:30;;;;;;;26.25;18.17;;;12.20;99.90;;;;;;4817667;29;20058;-83
2022/11/11 10:28:00;;;;;;;24.98;19.35;;;12.20;99.90;;;;;;4800980;29;20050;-84
2022/11/11 10:30:29;;;;;;;26.63;18.48;;;12.20;99.90;;;;;;4815856;29;20411;-85
2022/11/11 10:33:21;;;;;;;25.77;19.65;;;12.20;99.90;;;;;;4801948;29;20064;-84
2022/11/11 10:35:49;;;;;;;28.75;19.75;;;12.20;99.90;;;;;;4801109;29;20073;-83
2022/11/11 10:38:37;;;;;;;27.90;20.00;;;12.20;99.90;;;;;;4834969;29;20081;-84
2022/11/11 10:41:18;;;;;;;30.30;19.80;;;12.20;99.90;;;;;;4800624;29;20489;-84
2022/11/11 10:43:53;;;;;;;28.65;20.25;;;12.30;99.90;;;;;;4795524;29;20054;-83
2022/11/11 10:46:25;;;;;;;27.98;19.38;;;12.20;99.90;;;;;;4814854;29;20062;-84
2022/11/11 10:48:59;;;;;;;26.55;18.08;;;12.20;99.90;;;;;;4832446;29;20069;-84
2022/11/11 10:51:29;;;;;;;28.75;19.13;;;12.20;99.90;;;;;;4801933;29;20137;-84
2022/11/11 10:54:10;;;;;;;26.08;18.83;;;12.20;99.90;;;;;;4802156;29;20063;-84
2022/11/11 10:56:42;;;;;;;21.95;17.98;;;11.80;99.90;;;;;;4801223;29;20489;-82
2022/11/11 10:59:35;;;;;;;28.38;18.75;;;12.20;99.90;;;;;;4809088;29;20058;-83
2022/11/11 11:02:21;;;;;;;27.73;19.45;;;12.20;99.90;;;;;;4815088;29;20113;-82
2022/11/11 11:05:00;;;;;;;24.00;18.60;;;12.20;99.90;;;;;;4827938;29;20054;-83
2022/11/11 11:07:43;;;;;;;26.38;19.02;;;12.20;99.90;;;;;;4787680;29;20046;-83
2022/11/11 11:10:34;;;;;;;25.55;17.90;;;12.10;99.90;;;;;;4810494;29;21032;-81
2022/11/11 11:13:36;;;;;;;24.75;17.52;;;12.10;99.90;;;;;;4796828;29;20065;-83
2022/11/11 11:16:15;;;;;;;24.77;17.98;;;12.20;99.90;;;;;;4777466;29;20062;-82
2022/11/11 11:18:43;;;;;;;23.85;17.85;;;12.20;99.90;;;;;;4812755;29;20089;-83
2022/11/11 11:21:09;;;;;;;28.17;19.00;;;11.60;99.90;;;;;;4779825;29;20123;-82
2022/11/11 11:23:42;;;;;;;21.95;17.52;;;12.10;99.90;;;;;;4810064;29;20412;-84
2022/11/11 11:26:10;;;;;;;25.63;17.73;;;12.10;99.90;;;;;;4796020;29;20115;-82
2022/11/11 11:28:53;;;;;;;24.38;17.85;;;12.10;99.90;;;;;;4800331;29;20069;-84
2022/11/11 11:31:38;;;;;;;24.58;17.75;;;12.10;99.90;;;;;;4811753;29;20049;-83
2022/11/11 11:34:04;;;;;;;24.63;17.63;;;12.10;99.90;;;;;;4797891;29;20160;-83
2022/11/11 11:36:30;;;;;;;26.20;17.73;;;12.10;99.90;;;;;;4813264;29;20066;-83
2022/11/11 11:38:56;;;;;;;22.42;17.48;;;12.10;99.90;;;;;;4814526;29;20116;-84
2022/11/11 11:41:39;;;;;;;22.88;16.88;;;12.10;99.90;;;;;;4796946;29;20964;-84
2022/11/11 11:44:28;;;;;;;24.98;17.73;;;11.80;99.90;;;;;;4809719;29;20050;-84
2022/11/11 11:47:09;;;;;;;23.38;17.55;;;12.10;99.90;;;;;;4798144;29;20081;-86
2022/11/11 11:50:23;;;;;;;21.52;16.88;;;11.80;99.90;;;;;;4815911;29;21311;-84
2022/11/11 11:53:03;;;;;;;24.13;16.65;;;12.10;99.90;;;;;;4792286;29;20054;-85
2022/11/11 11:55:36;;;;;;;22.73;16.00;;;12.20;99.90;;;;;;4816798;29;20061;-84
2022/11/11 11:58:18;;;;;;;22.65;15.93;;;12.20;99.90;;;;;;4814529;29;20072;-85
2022/11/11 12:01:09;;;;;;;21.10;15.82;;;12.20;99.90;;;;;;4801072;29;20054;-85
2022/11/11 12:03:57;;;;;;;20.52;14.55;;;12.20;99.90;;;;;;4796006;29;20050;-87
2022/11/11 12:06:48;;;;;;;20.70;14.52;;;12.30;99.90;;;;;;4797539;29;20085;-86
2022/11/11 12:09:55;;;;;;;25.00;15.38;;;12.20;99.90;;;;;;4810248;29;20148;-86
2022/11/11 12:12:30;;;;;;;22.25;14.63;;;12.30;99.90;;;;;;4812066;29;20050;-86
2022/11/11 12:15:23;;;;;;;20.70;15.10;;;11.70;99.90;;;;;;4810855;29;20093;-87
2022/11/11 12:18:15;;;;;;;21.20;14.40;;;12.30;99.90;;;;;;4785667;29;20066;-86
2022/11/11 12:21:17;;;;;;;18.73;13.90;;;12.30;99.90;;;;;;4794727;29;20484;-86
2022/11/11 12:23:54;;;;;;;21.60;15.00;;;12.30;99.90;;;;;;4800189;29;20046;-86
2022/11/11 12:26:45;;;;;;;18.20;14.20;;;12.30;99.90;;;;;;4813512;29;20053;-87
2022/11/11 12:29:41;;;;;;;24.85;14.18;;;11.40;99.90;;;;;;4794857;29;20049;-86
2022/11/11 12:32:48;;;;;;;20.25;13.27;;;12.40;99.90;;;;;;4793271;29;20050;-86
2022/11/11 12:35:20;;;;;;;;;;;12.30;99.90;;;;;;4783748;29;20058;-86
2022/11/11 12:38:05;;;;;;;18.15;12.63;;;12.40;99.90;;;;;;4798674;29;19950;-86
2022/11/11 12:40:59;;;;;;;17.83;12.18;;;12.50;99.90;;;;;;4798080;29;20054;-87
2022/11/11 12:44:04;;;;;;;18.55;13.02;;;12.40;99.90;;;;;;4810053;29;20069;-85
2022/11/11 12:46:45;;;;;;;18.10;11.65;;;12.90;99.90;;;;;;4808900;29;20053;-85
2022/11/11 12:49:21;;;;;;;21.38;11.95;;;12.50;99.90;;;;;;4826571;29;20593;-87
2022/11/11 12:52:06;;;;;;;19.48;12.30;;;12.50;99.90;;;;;;4809385;29;20595;-86
2022/11/11 12:54:50;;;;;;;17.67;11.13;;;12.50;99.90;;;;;;4796100;29;20058;-86
2022/11/11 12:57:37;;;;;;;19.45;11.35;;;12.60;99.90;;;;;;4794414;29;20050;-86
2022/11/11 13:00:19;;;;;;;18.38;10.40;;;12.50;99.90;;;;;;4790847;29;20052;-85
2022/11/11 13:03:15;;;;;;;19.42;11.60;;;12.60;99.90;;;;;;4811579;29;20046;-85
2022/11/11 13:05:55;;;;;;;19.97;11.03;;;12.60;99.90;;;;;;4809829;29;20131;-86
2022/11/11 13:08:33;;;;;;;20.08;11.02;;;12.60;99.90;;;;;;4804806;29;20057;-85
2022/11/11 13:11:29;;;;;;;15.98;10.32;;;12.60;99.90;;;;;;4791894;29;20050;-86
2022/11/11 13:14:13;;;;;;;18.27;11.07;;;12.60;99.90;;;;;;4810526;29;20062;-84
2022/11/11 13:16:39;;;;;;;20.52;10.35;;;12.60;99.90;;;;;;4797697;29;20042;-84
2022/11/11 13:19:24;;;;;;;17.77;11.15;;;12.50;99.90;;;;;;4800022;29;20065;-84
2022/11/11 13:22:14;;;;;;;17.83;11.00;;;12.50;99.90;;;;;;4802375;29;20089;-84
2022/11/11 13:24:41;;;;;;;16.90;10.48;;;12.00;99.90;;;;;;4801510;29;20054;-86
2022/11/11 13:27:16;;;;;;;16.90;11.30;;;12.50;99.90;;;;;;4798927;29;20077;-85
2022/11/11 13:29:55;;;;;;;18.92;10.68;;;12.40;99.90;;;;;;4818665;29;20054;-85
2022/11/11 13:32:27;;;;;;;15.65;11.07;;;12.40;99.90;;;;;;4817760;29;20038;-87
2022/11/11 13:34:54;;;;;;;16.25;10.90;;;12.40;99.90;;;;;;4800042;29;20070;-87
2022/11/11 13:37:34;;;;;;;17.15;11.25;;;12.40;99.90;;;;;;4796881;29;20106;-85
2022/11/11 13:40:05;;;;;;;17.75;11.88;;;12.40;99.90;;;;;;4809981;29;20058;-85
2022/11/11 13:42:38;;;;;;;19.73;11.40;;;12.40;99.90;;;;;;4795308;29;20089;-85
2022/11/11 13:45:05;;;;;;;16.92;10.90;;;12.30;99.90;;;;;;4811375;29;20062;-86
2022/11/11 13:47:43;;;;;;;17.02;10.25;;;12.40;99.90;;;;;;4812919;29;20042;-84
2022/11/11 13:50:26;;;;;;;19.77;11.02;;;12.40;99.90;;;;;;4808781;29;20114;-85
2022/11/11 13:53:14;;;;;;;16.10;10.13;;;12.30;99.90;;;;;;4807034;29;20112;-84
2022/11/11 13:55:46;;;;;;;23.10;10.57;;;12.30;99.90;;;;;;4813147;29;20064;-84
2022/11/11 13:58:25;;;;;;;16.48;10.32;;;12.30;99.90;;;;;;4798121;29;20106;-86
2022/11/11 14:01:05;;;;;;;17.33;9.57;;;12.40;99.90;;;;;;4798614;29;20058;-84
2022/11/11 14:03:58;;;;;;;17.60;10.50;;;12.30;99.90;;;;;;4795400;29;20114;-84
2022/11/11 14:06:30;;;;;;;20.10;10.35;;;12.30;99.90;;;;;;4815681;29;20106;-87
2022/11/11 14:08:56;;;;;;;15.07;9.25;;;12.30;99.90;;;;;;4804260;29;20058;-87